sensor_id;sensor_type;location;lat;lon;timestamp;pressure;altitude;pressure_sealevel;temperature;humidity
43681;BME280;29281;50.356;30.894;2023-04-08T00:00:50;100545.34;;;11.73;100.00
43681;BME280;29281;50.356;30.894;2023-04-08T00:01:53;100544.23;;;11.63;100.00
43681;BME280;29281;50.356;30.894;2023-04-08T00:02:56;100547.32;;;11.57;100.00
43681;BME280;29281;50.356;30.894;2023-04-08T00:04:00;100545.31;;;11.60;100.00
43681;BME280;29281;50.356;30.894;2023-04-08T00:05:03;100537.01;;;11.65;100.00
43681;BME280;29281;50.356;30.894;2023-04-08T00:06:08;100539.27;;;11.71;100.00
43681;BME280;29281;50.356;30.894;2023-04-08T00:07:11;100537.81;;;11.80;100.00
43681;BME280;29281;50.356;30.894;2023-04-08T00:08:17;100536.97;;;11.79;100.00
43681;BME280;29281;50.356;30.894;2023-04-08T00:09:20;100534.86;;;11.84;100.00
43681;BME280;29281;50.356;30.894;2023-04-08T00:10:24;100537.52;;;11.84;100.00
43681;BME280;29281;50.356;30.894;2023-04-08T00:11:29;100541.58;;;11.90;100.00
43681;BME280;29281;50.356;30.894;2023-04-08T00:12:33;100539.98;;;11.87;100.00
43681;BME280;29281;50.356;30.894;2023-04-08T00:13:35;100545.17;;;11.76;100.00
43681;BME280;29281;50.356;30.894;2023-04-08T00:14:39;100545.34;;;11.73;100.00
43681;BME280;29281;50.356;30.894;2023-04-08T00:15:47;100543.71;;;11.58;100.00
43681;BME280;29281;50.356;30.894;2023-04-08T00:16:51;100540.30;;;11.56;100.00
43681;BME280;29281;50.356;30.894;2023-04-08T00:17:54;100535.83;;;11.56;100.00
43681;BME280;29281;50.356;30.894;2023-04-08T00:18:58;100540.69;;;11.50;100.00
43681;BME280;29281;50.356;30.894;2023-04-08T00:20:01;100531.66;;;11.52;100.00
43681;BME280;29281;50.356;30.894;2023-04-08T00:21:04;100530.70;;;11.53;100.00
43681;BME280;29281;50.356;30.894;2023-04-08T00:22:08;100536.33;;;11.49;100.00
43681;BME280;29281;50.356;30.894;2023-04-08T00:23:14;100533.56;;;11.50;100.00
43681;BME280;29281;50.356;30.894;2023-04-08T00:24:17;100533.27;;;11.55;100.00
43681;BME280;29281;50.356;30.894;2023-04-08T00:25:22;100534.88;;;11.57;100.00
43681;BME280;29281;50.356;30.894;2023-04-08T00:26:27;100530.05;;;11.50;100.00
43681;BME280;29281;50.356;30.894;2023-04-08T00:27:29;100534.88;;;11.57;100.00
43681;BME280;29281;50.356;30.894;2023-04-08T00:28:35;100528.27;;;11.63;100.00
43681;BME280;29281;50.356;30.894;2023-04-08T00:29:38;100532.44;;;11.67;100.00
43681;BME280;29281;50.356;30.894;2023-04-08T00:30:43;100531.56;;;11.54;100.00
43681;BME280;29281;50.356;30.894;2023-04-08T00:31:46;100529.09;;;11.51;100.00
43681;BME280;29281;50.356;30.894;2023-04-08T00:32:50;100528.50;;;11.60;100.00
43681;BME280;29281;50.356;30.894;2023-04-08T00:33:56;100524.99;;;11.59;100.00
43681;BME280;29281;50.356;30.894;2023-04-08T00:35:00;100527.88;;;11.69;100.00
43681;BME280;29281;50.356;30.894;2023-04-08T00:36:06;100530.34;;;11.72;100.00
43681;BME280;29281;50.356;30.894;2023-04-08T00:37:11;100525.21;;;11.69;100.00
43681;BME280;29281;50.356;30.894;2023-04-08T00:38:14;100529.13;;;11.63;100.00
43681;BME280;29281;50.356;30.894;2023-04-08T00:39:16;100525.52;;;11.64;100.00
43681;BME280;29281;50.356;30.894;2023-04-08T00:40:19;100522.27;;;11.47;100.00
43681;BME280;29281;50.356;30.894;2023-04-08T00:41:26;100526.30;;;11.40;100.00
43681;BME280;29281;50.356;30.894;2023-04-08T00:42:27;100520.33;;;11.36;100.00
43681;BME280;29281;50.356;30.894;2023-04-08T00:43:34;100524.20;;;11.45;100.00
43681;BME280;29281;50.356;30.894;2023-04-08T00:44:38;100526.54;;;11.49;100.00
43681;BME280;29281;50.356;30.894;2023-04-08T00:45:41;100529.82;;;11.40;100.00
43681;BME280;29281;50.356;30.894;2023-04-08T00:46:44;100526.80;;;11.32;100.00
43681;BME280;29281;50.356;30.894;2023-04-08T00:47:48;100529.82;;;11.40;100.00
43681;BME280;29281;50.356;30.894;2023-04-08T00:48:54;100530.15;;;11.48;100.00
43681;BME280;29281;50.356;30.894;2023-04-08T00:49:58;100523.78;;;11.51;100.00
43681;BME280;29281;50.356;30.894;2023-04-08T00:51:02;100515.41;;;11.57;100.00
43681;BME280;29281;50.356;30.894;2023-04-08T00:52:06;100523.58;;;11.54;100.00
43681;BME280;29281;50.356;30.894;2023-04-08T00:53:09;100514.52;;;11.44;100.00
43681;BME280;29281;50.356;30.894;2023-04-08T00:54:19;100518.42;;;11.38;100.00
43681;BME280;29281;50.356;30.894;2023-04-08T00:55:23;100517.48;;;11.39;100.00
43681;BME280;29281;50.356;30.894;2023-04-08T00:56:26;100520.27;;;11.50;100.00
43681;BME280;29281;50.356;30.894;2023-04-08T00:57:30;100523.19;;;11.60;100.00
43681;BME280;29281;50.356;30.894;2023-04-08T00:58:33;100516.06;;;11.60;100.00
43681;BME280;29281;50.356;30.894;2023-04-08T00:59:37;100522.10;;;11.62;100.00
43681;BME280;29281;50.356;30.894;2023-04-08T01:00:47;100518.59;;;11.62;100.00
43681;BME280;29281;50.356;30.894;2023-04-08T01:01:58;100517.53;;;11.64;100.00
43681;BME280;29281;50.356;30.894;2023-04-08T01:03:02;100517.21;;;11.56;100.00
43681;BME280;29281;50.356;30.894;2023-04-08T01:06:48;100514.58;;;11.69;100.00
43681;BME280;29281;50.356;30.894;2023-04-08T01:07:50;100510.95;;;11.70;100.00
43681;BME280;29281;50.356;30.894;2023-04-08T01:08:55;100515.73;;;11.65;100.00
43681;BME280;29281;50.356;30.894;2023-04-08T01:10:02;100512.67;;;11.71;100.00
43681;BME280;29281;50.356;30.894;2023-04-08T01:11:09;100510.00;;;11.71;100.00
43681;BME280;29281;50.356;30.894;2023-04-08T01:12:20;100516.38;;;11.69;100.00
43681;BME280;29281;50.356;30.894;2023-04-08T01:13:25;100517.23;;;11.69;100.00
43681;BME280;29281;50.356;30.894;2023-04-08T01:14:30;100528.08;;;11.66;100.00
43681;BME280;29281;50.356;30.894;2023-04-08T01:15:35;100522.66;;;11.68;100.00
43681;BME280;29281;50.356;30.894;2023-04-08T01:16:41;100519.23;;;11.66;100.00
43681;BME280;29281;50.356;30.894;2023-04-08T01:17:43;100511.89;;;11.56;100.00
43681;BME280;29281;50.356;30.894;2023-04-08T01:20:01;100503.52;;;11.36;100.00
43681;BME280;29281;50.356;30.894;2023-04-08T01:21:08;100497.87;;;11.27;100.00
43681;BME280;29281;50.356;30.894;2023-04-08T01:22:22;100501.78;;;11.22;100.00
43681;BME280;29281;50.356;30.894;2023-04-08T01:26:03;100511.63;;;11.47;100.00
43681;BME280;29281;50.356;30.894;2023-04-08T01:27:06;100509.30;;;11.42;100.00
43681;BME280;29281;50.356;30.894;2023-04-08T01:28:12;100509.73;;;11.49;100.00
43681;BME280;29281;50.356;30.894;2023-04-08T01:29:16;100508.88;;;11.48;100.00
43681;BME280;29281;50.356;30.894;2023-04-08T01:30:22;100519.74;;;11.45;100.00
43681;BME280;29281;50.356;30.894;2023-04-08T01:31:26;100510.74;;;11.34;100.00
43681;BME280;29281;50.356;30.894;2023-04-08T01:32:29;100508.19;;;11.32;100.00
43681;BME280;29281;50.356;30.894;2023-04-08T01:33:34;100503.09;;;11.29;100.00
43681;BME280;29281;50.356;30.894;2023-04-08T01:34:37;100502.02;;;11.32;100.00
43681;BME280;29281;50.356;30.894;2023-04-08T01:35:42;100511.27;;;11.26;100.00
43681;BME280;29281;50.356;30.894;2023-04-08T01:36:46;100503.48;;;11.23;100.00
43681;BME280;29281;50.356;30.894;2023-04-08T01:37:49;100504.90;;;11.28;100.00
43681;BME280;29281;50.356;30.894;2023-04-08T01:38:53;100512.02;;;11.28;100.00
43681;BME280;29281;50.356;30.894;2023-04-08T01:39:59;100509.89;;;11.33;100.00
43681;BME280;29281;50.356;30.894;2023-04-08T01:41:02;100517.58;;;11.38;100.00
43681;BME280;29281;50.356;30.894;2023-04-08T01:42:08;100520.23;;;11.38;100.00
43681;BME280;29281;50.356;30.894;2023-04-08T01:43:15;100520.62;;;11.32;100.00
43681;BME280;29281;50.356;30.894;2023-04-08T01:44:20;100524.14;;;11.32;100.00
43681;BME280;29281;50.356;30.894;2023-04-08T01:45:25;100532.21;;;11.31;100.00
43681;BME280;29281;50.356;30.894;2023-04-08T01:46:31;100525.84;;;11.33;100.00
43681;BME280;29281;50.356;30.894;2023-04-08T01:47:37;100532.44;;;11.27;100.00
43681;BME280;29281;50.356;30.894;2023-04-08T01:48:47;100524.75;;;11.23;100.00
43681;BME280;29281;50.356;30.894;2023-04-08T01:49:52;100522.23;;;11.34;100.00
43681;BME280;29281;50.356;30.894;2023-04-08T01:50:57;100530.97;;;11.36;100.00
43681;BME280;29281;50.356;30.894;2023-04-08T01:52:04;100527.26;;;11.39;100.00
43681;BME280;29281;50.356;30.894;2023-04-08T01:53:10;100529.39;;;11.46;100.00
43681;BME280;29281;50.356;30.894;2023-04-08T01:54:17;100519.09;;;11.42;100.00
43681;BME280;29281;50.356;30.894;2023-04-08T01:55:20;100521.94;;;11.39;100.00
43681;BME280;29281;50.356;30.894;2023-04-08T01:56:28;100526.59;;;11.35;100.00
43681;BME280;29281;50.356;30.894;2023-04-08T01:57:32;100521.38;;;11.34;100.00
43681;BME280;29281;50.356;30.894;2023-04-08T01:58:41;100519.28;;;11.39;100.00
43681;BME280;29281;50.356;30.894;2023-04-08T01:59:46;100509.89;;;11.33;100.00
43681;BME280;29281;50.356;30.894;2023-04-08T02:00:52;100517.58;;;11.38;100.00
43681;BME280;29281;50.356;30.894;2023-04-08T02:01:56;100520.69;;;11.44;100.00
43681;BME280;29281;50.356;30.894;2023-04-08T02:03:03;100519.41;;;11.50;100.00
43681;BME280;29281;50.356;30.894;2023-04-08T02:04:12;100525.55;;;11.38;100.00
43681;BME280;29281;50.356;30.894;2023-04-08T02:05:16;100524.70;;;11.37;100.00
43681;BME280;29281;50.356;30.894;2023-04-08T02:06:19;100519.67;;;11.33;100.00
43681;BME280;29281;50.356;30.894;2023-04-08T02:07:23;100522.56;;;11.30;100.00
43681;BME280;29281;50.356;30.894;2023-04-08T02:08:26;100529.68;;;11.29;100.00
43681;BME280;29281;50.356;30.894;2023-04-08T02:09:30;100530.77;;;11.39;100.00
43681;BME280;29281;50.356;30.894;2023-04-08T02:10:33;100520.79;;;11.43;100.00
43681;BME280;29281;50.356;30.894;2023-04-08T02:11:35;100527.39;;;11.50;100.00
43681;BME280;29281;50.356;30.894;2023-04-08T02:12:40;100526.44;;;11.51;100.00
43681;BME280;29281;50.356;30.894;2023-04-08T02:13:45;100530.70;;;11.53;100.00
43681;BME280;29281;50.356;30.894;2023-04-08T02:14:49;100519.52;;;11.48;100.00
43681;BME280;29281;50.356;30.894;2023-04-08T02:16:01;100513.77;;;11.42;100.00
43681;BME280;29281;50.356;30.894;2023-04-08T02:17:07;100518.72;;;11.34;100.00
43681;BME280;29281;50.356;30.894;2023-04-08T02:18:16;100514.87;;;11.25;100.00
43681;BME280;29281;50.356;30.894;2023-04-08T02:19:24;100516.68;;;11.24;100.00
43681;BME280;29281;50.356;30.894;2023-04-08T02:20:32;100513.41;;;11.34;100.00
43681;BME280;29281;50.356;30.894;2023-04-08T02:21:42;100510.51;;;11.24;100.00
43681;BME280;29281;50.356;30.894;2023-04-08T02:22:54;100518.42;;;11.38;100.00
43681;BME280;29281;50.356;30.894;2023-04-08T02:23:57;100504.38;;;11.36;100.00
43681;BME280;29281;50.356;30.894;2023-04-08T02:25:06;100504.34;;;11.23;100.00
43681;BME280;29281;50.356;30.894;2023-04-08T02:26:12;100509.56;;;11.25;100.00
43681;BME280;29281;50.356;30.894;2023-04-08T02:27:17;100506.28;;;11.34;100.00
43681;BME280;29281;50.356;30.894;2023-04-08T02:28:20;100507.27;;;11.46;100.00
43681;BME280;29281;50.356;30.894;2023-04-08T02:29:24;100509.33;;;11.55;100.00
43681;BME280;29281;50.356;30.894;2023-04-08T02:30:28;100506.57;;;11.56;100.00
43681;BME280;29281;50.356;30.894;2023-04-08T02:31:33;100508.88;;;11.48;100.00
43681;BME280;29281;50.356;30.894;2023-04-08T02:32:37;100508.02;;;11.48;100.00
43681;BME280;29281;50.356;30.894;2023-04-08T02:33:43;100499.84;;;11.51;100.00
43681;BME280;29281;50.356;30.894;2023-04-08T02:34:50;100506.21;;;11.48;100.00
43681;BME280;29281;50.356;30.894;2023-04-08T02:36:01;100507.27;;;11.46;100.00
43681;BME280;29281;50.356;30.894;2023-04-08T02:37:02;100507.59;;;11.41;100.00
43681;BME280;29281;50.356;30.894;2023-04-08T02:38:07;100516.26;;;11.31;100.00
43681;BME280;29281;50.356;30.894;2023-04-08T02:39:13;100522.80;;;11.39;100.00
43681;BME280;29281;50.356;30.894;2023-04-08T02:40:23;100513.86;;;11.40;100.00
43681;BME280;29281;50.356;30.894;2023-04-08T02:41:30;100518.23;;;11.41;100.00
43681;BME280;29281;50.356;30.894;2023-04-08T02:42:33;100519.94;;;11.42;100.00
43681;BME280;29281;50.356;30.894;2023-04-08T02:43:36;100521.55;;;11.45;100.00
43681;BME280;29281;50.356;30.894;2023-04-08T02:44:40;100517.91;;;11.46;100.00
43681;BME280;29281;50.356;30.894;2023-04-08T02:45:44;100523.02;;;11.49;100.00
43681;BME280;29281;50.356;30.894;2023-04-08T02:46:47;100521.94;;;11.39;100.00
43681;BME280;29281;50.356;30.894;2023-04-08T02:47:49;100522.14;;;11.36;100.00
43681;BME280;29281;50.356;30.894;2023-04-08T02:48:53;100524.20;;;11.45;100.00
43681;BME280;29281;50.356;30.894;2023-04-08T02:49:57;100525.16;;;11.44;100.00
43681;BME280;29281;50.356;30.894;2023-04-08T02:51:00;100522.27;;;11.47;100.00
43681;BME280;29281;50.356;30.894;2023-04-08T02:52:04;100521.41;;;11.46;100.00
43681;BME280;29281;50.356;30.894;2023-04-08T02:53:08;100520.27;;;11.50;100.00
43681;BME280;29281;50.356;30.894;2023-04-08T02:54:12;100522.07;;;11.50;100.00
43681;BME280;29281;50.356;30.894;2023-04-08T02:55:16;100522.89;;;11.38;100.00
43681;BME280;29281;50.356;30.894;2023-04-08T02:56:18;100523.55;;;11.41;100.00
43681;BME280;29281;50.356;30.894;2023-04-08T02:57:23;100523.78;;;11.51;100.00
43681;BME280;29281;50.356;30.894;2023-04-08T02:58:27;100512.94;;;11.54;100.00
43681;BME280;29281;50.356;30.894;2023-04-08T02:59:30;100520.92;;;11.54;100.00
43681;BME280;29281;50.356;30.894;2023-04-08T03:00:34;100514.22;;;11.61;100.00
43681;BME280;29281;50.356;30.894;2023-04-08T03:01:38;100517.86;;;11.60;100.00
43681;BME280;29281;50.356;30.894;2023-04-08T03:02:40;100519.22;;;11.53;100.00
43681;BME280;29281;50.356;30.894;2023-04-08T03:03:45;100513.89;;;11.53;100.00
43681;BME280;29281;50.356;30.894;2023-04-08T03:04:49;100522.73;;;11.53;100.00
43681;BME280;29281;50.356;30.894;2023-04-08T03:05:52;100521.84;;;11.40;100.00
43681;BME280;29281;50.356;30.894;2023-04-08T03:06:55;100520.69;;;11.44;100.00
43681;BME280;29281;50.356;30.894;2023-04-08T03:08:00;100531.10;;;11.47;100.00
43681;BME280;29281;50.356;30.894;2023-04-08T03:09:05;100531.20;;;11.46;100.00
43681;BME280;29281;50.356;30.894;2023-04-08T03:10:09;100534.19;;;11.41;100.00
43681;BME280;29281;50.356;30.894;2023-04-08T03:11:12;100533.33;;;11.41;100.00
43681;BME280;29281;50.356;30.894;2023-04-08T03:12:16;100532.48;;;11.40;100.00
43681;BME280;29281;50.356;30.894;2023-04-08T03:13:19;100535.33;;;11.37;100.00
43681;BME280;29281;50.356;30.894;2023-04-08T03:14:22;100531.06;;;11.35;100.00
43681;BME280;29281;50.356;30.894;2023-04-08T03:15:26;100535.53;;;11.34;100.00
43681;BME280;29281;50.356;30.894;2023-04-08T03:16:29;100536.14;;;11.25;100.00
43681;BME280;29281;50.356;30.894;2023-04-08T03:17:32;100532.77;;;11.36;100.00
43681;BME280;29281;50.356;30.894;2023-04-08T03:18:36;100537.23;;;11.35;100.00
43681;BME280;29281;50.356;30.894;2023-04-08T03:19:40;100529.36;;;11.34;100.00
43681;BME280;29281;50.356;30.894;2023-04-08T03:20:44;100530.41;;;11.31;100.00
43681;BME280;29281;50.356;30.894;2023-04-08T03:21:49;100531.06;;;11.35;100.00
43681;BME280;29281;50.356;30.894;2023-04-08T03:22:55;100539.37;;;11.30;100.00
43681;BME280;29281;50.356;30.894;2023-04-08T03:24:00;100526.07;;;11.30;100.00
43681;BME280;29281;50.356;30.894;2023-04-08T03:25:04;100526.17;;;11.28;100.00
43681;BME280;29281;50.356;30.894;2023-04-08T03:26:07;100528.41;;;11.35;100.00
43681;BME280;29281;50.356;30.894;2023-04-08T03:27:12;100535.43;;;11.36;100.00
43681;BME280;29281;50.356;30.894;2023-04-08T03:28:16;100528.02;;;11.41;100.00
43681;BME280;29281;50.356;30.894;2023-04-08T03:29:19;100530.48;;;11.44;100.00
43681;BME280;29281;50.356;30.894;2023-04-08T03:30:23;100529.06;;;11.38;100.00
43681;BME280;29281;50.356;30.894;2023-04-08T03:31:26;100532.48;;;11.40;100.00
43681;BME280;29281;50.356;30.894;2023-04-08T03:32:31;100526.50;;;11.37;100.00
43681;BME280;29281;50.356;30.894;2023-04-08T03:33:34;100521.55;;;11.45;100.00
43681;BME280;29281;50.356;30.894;2023-04-08T03:34:37;100525.78;;;11.47;100.00
43681;BME280;29281;50.356;30.894;2023-04-08T03:35:41;100525.88;;;11.46;100.00
43681;BME280;29281;50.356;30.894;2023-04-08T03:36:44;100532.77;;;11.36;100.00
43681;BME280;29281;50.356;30.894;2023-04-08T03:37:46;100532.67;;;11.37;100.00
43681;BME280;29281;50.356;30.894;2023-04-08T03:38:49;100533.92;;;11.32;100.00
43681;BME280;29281;50.356;30.894;2023-04-08T03:39:54;100527.22;;;11.26;100.00
43681;BME280;29281;50.356;30.894;2023-04-08T03:40:58;100527.97;;;11.28;100.00
43681;BME280;29281;50.356;30.894;2023-04-08T03:42:03;100529.60;;;11.16;100.00
43681;BME280;29281;50.356;30.894;2023-04-08T03:43:05;100530.36;;;11.18;100.00
43681;BME280;29281;50.356;30.894;2023-04-08T03:44:13;100531.97;;;11.21;100.00
43681;BME280;29281;50.356;30.894;2023-04-08T03:45:17;100532.73;;;11.23;100.00
43681;BME280;29281;50.356;30.894;2023-04-08T03:46:20;100529.13;;;11.24;100.00
43681;BME280;29281;50.356;30.894;2023-04-08T03:47:27;100521.58;;;11.31;100.00
43681;BME280;29281;50.356;30.894;2023-04-08T03:48:36;100526.59;;;11.35;100.00
43681;BME280;29281;50.356;30.894;2023-04-08T03:49:36;100530.87;;;11.38;100.00
43681;BME280;29281;50.356;30.894;2023-04-08T03:50:41;100532.97;;;11.33;100.00
43681;BME280;29281;50.356;30.894;2023-04-08T03:51:45;100537.44;;;11.32;100.00
43681;BME280;29281;50.356;30.894;2023-04-08T03:52:48;100533.82;;;11.33;100.00
43681;BME280;29281;50.356;30.894;2023-04-08T03:53:51;100537.14;;;11.37;100.00
43681;BME280;29281;50.356;30.894;2023-04-08T03:54:54;100532.37;;;11.42;100.00
43681;BME280;29281;50.356;30.894;2023-04-08T03:55:58;100535.70;;;11.45;100.00
43681;BME280;29281;50.356;30.894;2023-04-08T03:57:01;100540.89;;;11.47;100.00
43681;BME280;29281;50.356;30.894;2023-04-08T03:58:05;100538.59;;;11.55;100.00
43681;BME280;29281;50.356;30.894;2023-04-08T03:59:08;100538.29;;;11.59;100.00
43681;BME280;29281;50.356;30.894;2023-04-08T04:00:12;100540.20;;;11.57;100.00
43681;BME280;29281;50.356;30.894;2023-04-08T04:01:15;100531.66;;;11.52;100.00
43681;BME280;29281;50.356;30.894;2023-04-08T04:02:19;100543.91;;;11.55;100.00
43681;BME280;29281;50.356;30.894;2023-04-08T04:03:23;100546.66;;;11.53;100.00
43681;BME280;29281;50.356;30.894;2023-04-08T04:04:27;100544.47;;;11.60;100.00
43681;BME280;29281;50.356;30.894;2023-04-08T04:05:30;100538.16;;;11.61;100.00
43681;BME280;29281;50.356;30.894;2023-04-08T04:06:33;100543.71;;;11.58;100.00
43681;BME280;29281;50.356;30.894;2023-04-08T04:07:37;100547.23;;;11.58;100.00
43681;BME280;29281;50.356;30.894;2023-04-08T04:08:40;100545.42;;;11.59;100.00
43681;BME280;29281;50.356;30.894;2023-04-08T04:09:44;100548.08;;;11.59;100.00
43681;BME280;29281;50.356;30.894;2023-04-08T04:10:49;100549.23;;;11.55;100.00
43681;BME280;29281;50.356;30.894;2023-04-08T04:11:52;100550.31;;;11.65;100.00
43681;BME280;29281;50.356;30.894;2023-04-08T04:12:57;100543.38;;;11.62;100.00
43681;BME280;29281;50.356;30.894;2023-04-08T04:14:01;100547.65;;;11.65;100.00
43681;BME280;29281;50.356;30.894;2023-04-08T04:15:04;100553.06;;;11.63;100.00
43681;BME280;29281;50.356;30.894;2023-04-08T04:16:09;100550.21;;;11.67;100.00
43681;BME280;29281;50.356;30.894;2023-04-08T04:17:12;100550.87;;;11.70;100.00
43681;BME280;29281;50.356;30.894;2023-04-08T04:18:15;100553.06;;;11.63;100.00
43681;BME280;29281;50.356;30.894;2023-04-08T04:19:19;100557.77;;;11.60;100.00
43681;BME280;29281;50.356;30.894;2023-04-08T04:20:25;100546.40;;;11.71;100.00
43681;BME280;29281;50.356;30.894;2023-04-08T04:21:31;100557.50;;;11.77;100.00
43681;BME280;29281;50.356;30.894;2023-04-08T04:22:35;100560.21;;;11.90;100.00
43681;BME280;29281;50.356;30.894;2023-04-08T04:23:39;100550.82;;;11.84;100.00
43681;BME280;29281;50.356;30.894;2023-04-08T04:24:41;100553.94;;;11.91;100.00
43681;BME280;29281;50.356;30.894;2023-04-08T04:25:47;100555.61;;;11.92;100.00
43681;BME280;29281;50.356;30.894;2023-04-08T04:26:51;100549.11;;;11.83;100.00
43681;BME280;29281;50.356;30.894;2023-04-08T04:27:54;100559.20;;;11.78;100.00
43681;BME280;29281;50.356;30.894;2023-04-08T04:28:59;100548.81;;;11.88;100.00
43681;BME280;29281;50.356;30.894;2023-04-08T04:30:03;100549.02;;;11.85;100.00
43681;BME280;29281;50.356;30.894;2023-04-08T04:31:08;100547.84;;;11.76;100.00
43681;BME280;29281;50.356;30.894;2023-04-08T04:32:14;100556.44;;;11.80;100.00
43681;BME280;29281;50.356;30.894;2023-04-08T04:33:18;100560.31;;;11.88;100.00
43681;BME280;29281;50.356;30.894;2023-04-08T04:34:21;100556.05;;;11.86;100.00
43681;BME280;29281;50.356;30.894;2023-04-08T04:35:24;100564.34;;;11.94;100.00
43681;BME280;29281;50.356;30.894;2023-04-08T04:36:28;100563.41;;;12.08;100.00
43681;BME280;29281;50.356;30.894;2023-04-08T04:37:33;100565.97;;;12.09;100.00
43681;BME280;29281;50.356;30.894;2023-04-08T04:38:37;100573.75;;;12.12;100.00
43681;BME280;29281;50.356;30.894;2023-04-08T04:39:43;100572.88;;;11.99;100.00
43681;BME280;29281;50.356;30.894;2023-04-08T04:40:47;100569.28;;;12.13;100.00
43681;BME280;29281;50.356;30.894;2023-04-08T04:41:52;100569.37;;;12.11;100.00
43681;BME280;29281;50.356;30.894;2023-04-08T04:42:56;100560.74;;;12.08;100.00
43681;BME280;29281;50.356;30.894;2023-04-08T04:44:01;100568.01;;;12.06;100.00
43681;BME280;29281;50.356;30.894;2023-04-08T04:45:04;100563.74;;;12.03;100.00
43681;BME280;29281;50.356;30.894;2023-04-08T04:46:07;100567.26;;;12.04;100.00
43681;BME280;29281;50.356;30.894;2023-04-08T04:47:14;100569.72;;;12.07;100.00
43681;BME280;29281;50.356;30.894;2023-04-08T04:48:18;100570.88;;;12.03;100.00
43681;BME280;29281;50.356;30.894;2023-04-08T04:49:21;100576.40;;;12.00;100.00
43681;BME280;29281;50.356;30.894;2023-04-08T04:50:25;100574.04;;;11.95;100.00
43681;BME280;29281;50.356;30.894;2023-04-08T04:51:30;100577.16;;;12.02;100.00
43681;BME280;29281;50.356;30.894;2023-04-08T04:52:34;100574.39;;;12.03;100.00
43681;BME280;29281;50.356;30.894;2023-04-08T04:53:38;100574.40;;;12.16;100.00
43681;BME280;29281;50.356;30.894;2023-04-08T04:54:43;100576.31;;;12.39;100.00
43681;BME280;29281;50.356;30.894;2023-04-08T04:55:47;100572.37;;;12.57;100.00
43681;BME280;29281;50.356;30.894;2023-04-08T04:56:49;100583.34;;;12.53;100.00
43681;BME280;29281;50.356;30.894;2023-04-08T04:57:53;100575.03;;;12.57;100.00
43681;BME280;29281;50.356;30.894;2023-04-08T04:58:57;100586.99;;;12.52;100.00
43681;BME280;29281;50.356;30.894;2023-04-08T05:00:00;100583.25;;;12.67;100.00
43681;BME280;29281;50.356;30.894;2023-04-08T05:01:05;100583.02;;;12.70;100.00
43681;BME280;29281;50.356;30.894;2023-04-08T05:02:08;100581.29;;;12.94;100.00
43681;BME280;29281;50.356;30.894;2023-04-08T05:03:12;100575.64;;;12.86;100.00
43681;BME280;29281;50.356;30.894;2023-04-08T05:04:15;100575.95;;;12.94;100.00
43681;BME280;29281;50.356;30.894;2023-04-08T05:05:20;100576.92;;;12.93;100.00
43681;BME280;29281;50.356;30.894;2023-04-08T05:06:23;100577.27;;;12.76;100.00
43681;BME280;29281;50.356;30.894;2023-04-08T05:07:28;100577.69;;;12.83;100.00
43681;BME280;29281;50.356;30.894;2023-04-08T05:08:38;100577.45;;;12.86;100.00
43681;BME280;29281;50.356;30.894;2023-04-08T05:09:38;100586.86;;;12.79;100.00
43681;BME280;29281;50.356;30.894;2023-04-08T05:10:41;100580.86;;;12.88;100.00
43681;BME280;29281;50.356;30.894;2023-04-08T05:11:46;100577.88;;;12.92;100.00
43681;BME280;29281;50.356;30.894;2023-04-08T05:12:50;100582.27;;;12.81;100.00
43681;BME280;29281;50.356;30.894;2023-04-08T05:13:53;100588.05;;;12.49;100.00
43681;BME280;29281;50.356;30.894;2023-04-08T05:14:59;100583.58;;;12.50;100.00
43681;BME280;29281;50.356;30.894;2023-04-08T05:16:00;100580.58;;;12.54;100.00
43681;BME280;29281;50.356;30.894;2023-04-08T05:17:09;100584.44;;;12.50;100.00
43681;BME280;29281;50.356;30.894;2023-04-08T05:18:14;100576.55;;;12.49;100.00
43681;BME280;29281;50.356;30.894;2023-04-08T05:19:20;100575.58;;;12.62;100.00
43681;BME280;29281;50.356;30.894;2023-04-08T05:20:23;100578.34;;;12.61;100.00
43681;BME280;29281;50.356;30.894;2023-04-08T05:21:27;100585.70;;;12.57;100.00
43681;BME280;29281;50.356;30.894;2023-04-08T05:22:30;100581.45;;;12.67;100.00
43681;BME280;29281;50.356;30.894;2023-04-08T05:23:34;100572.59;;;12.67;100.00
43681;BME280;29281;50.356;30.894;2023-04-08T05:24:37;100575.68;;;12.61;100.00
43681;BME280;29281;50.356;30.894;2023-04-08T05:25:40;100576.09;;;12.55;100.00
43681;BME280;29281;50.356;30.894;2023-04-08T05:26:45;100578.15;;;12.51;100.00
43681;BME280;29281;50.356;30.894;2023-04-08T05:27:51;100576.09;;;12.55;100.00
43681;BME280;29281;50.356;30.894;2023-04-08T05:28:56;100584.09;;;12.55;100.00
43681;BME280;29281;50.356;30.894;2023-04-08T05:29:58;100577.92;;;12.67;100.00
43681;BME280;29281;50.356;30.894;2023-04-08T05:31:04;100582.38;;;12.79;100.00
43681;BME280;29281;50.356;30.894;2023-04-08T05:32:08;100583.73;;;12.85;100.00
43681;BME280;29281;50.356;30.894;2023-04-08T05:33:13;100578.86;;;12.79;100.00
43681;BME280;29281;50.356;30.894;2023-04-08T05:34:16;100586.64;;;12.82;100.00
43681;BME280;29281;50.356;30.894;2023-04-08T05:35:25;100590.26;;;12.68;100.00